Time;durP1;ratioP1;P1;durP2;ratioP2;P2;SDS_P1;SDS_P2;PMS_P1;PMS_P2;Temp;Humidity;BMP_temperature;BMP_pressure;BME280_temperature;BME280_humidity;BME280_pressure;Samples;Min_cycle;Max_cycle;Signal;HPM_P1;HPM_P2
2023/09/16 00:02:25;;;;;;;;;;;24.10;80.00;;;;;;5098014;28;19916;-35
2023/09/16 00:04:51;;;;;;;;;;;24.10;80.00;;;;;;5099378;28;19916;-36
2023/09/16 00:07:17;;;;;;;;;;;24.10;80.00;;;;;;5104310;28;19916;-35
2023/09/16 00:09:43;;;;;;;;;;;24.00;79.90;;;;;;5091786;28;20357;-35
2023/09/16 00:12:09;;;;;;;;;;;24.00;79.90;;;;;;5094448;28;19959;-36
2023/09/16 00:14:36;;;;;;;;;;;24.00;79.90;;;;;;5089937;28;19917;-36
2023/09/16 00:17:03;;;;;;;;;;;24.00;79.80;;;;;;5086848;28;19924;-36
2023/09/16 00:19:29;;;;;;;;;;;24.00;79.80;;;;;;5090213;28;19916;-35
2023/09/16 00:21:58;;;;;;;;;;;24.00;79.70;;;;;;5098019;28;19918;-36
2023/09/16 00:24:24;;;;;;;;;;;24.00;79.70;;;;;;5093495;28;19916;-36
2023/09/16 00:26:50;;;;;;;;;;;24.00;79.70;;;;;;5089484;28;19919;-36
2023/09/16 00:29:16;;;;;;;;;;;24.00;79.70;;;;;;5087489;28;19916;-35
2023/09/16 00:31:42;;;;;;;;;;;24.00;79.70;;;;;;5099899;28;19916;-35
2023/09/16 00:34:08;;;;;;;;;;;24.00;79.80;;;;;;5098688;28;19923;-35
2023/09/16 00:36:34;;;;;;;;;;;24.00;79.90;;;;;;5095629;28;19920;-36
2023/09/16 00:39:00;;;;;;;;;;;24.00;79.90;;;;;;5086007;28;19947;-35
2023/09/16 00:41:26;;;;;;;;;;;24.00;79.90;;;;;;5093225;28;19922;-36
2023/09/16 00:43:52;;;;;;;;;;;24.00;79.80;;;;;;5093793;28;19924;-35
2023/09/16 00:46:17;;;;;;;;;;;24.00;79.90;;;;;;5100257;28;20174;-35
2023/09/16 00:48:45;;;;;;;;;;;23.90;79.70;;;;;;5090682;28;20353;-35
2023/09/16 00:51:11;;;;;;;;;;;24.00;79.70;;;;;;5093527;28;19927;-36
2023/09/16 00:53:36;;;;;;;;;;;23.90;79.60;;;;;;5068253;28;19920;-35
2023/09/16 00:56:03;;;;;;;;;;;23.90;79.50;;;;;;5094125;28;19983;-35
2023/09/16 00:58:29;;;;;;;;;;;23.90;79.40;;;;;;5086160;28;19916;-35
2023/09/16 01:00:55;;;;;;;;;;;23.90;79.40;;;;;;5085838;28;19923;-35
2023/09/16 01:03:22;;;;;;;;;;;23.90;79.50;;;;;;5089153;28;19916;-35
2023/09/16 01:05:48;;;;;;;;;;;23.90;79.50;;;;;;5099970;28;22240;-36
2023/09/16 01:08:15;;;;;;;;;;;23.90;79.60;;;;;;5076441;28;19944;-35
2023/09/16 01:10:41;;;;;;;;;;;23.90;79.60;;;;;;5085635;28;19917;-35
2023/09/16 01:13:07;;;;;;;;;;;23.90;79.70;;;;;;5086601;28;19958;-36
2023/09/16 01:15:34;;;;;;;;;;;23.90;79.70;;;;;;5086081;28;19920;-35
2023/09/16 01:18:03;;;;;;;;;;;23.90;79.70;;;;;;5068553;28;20399;-36
2023/09/16 01:20:29;;;;;;;;;;;23.90;79.70;;;;;;5097052;28;19916;-35
2023/09/16 01:22:55;;;;;;;;;;;23.80;79.70;;;;;;5089066;28;19912;-35
2023/09/16 01:25:24;;;;;;;;;;;23.80;79.60;;;;;;5086400;28;19923;-35
2023/09/16 01:27:50;;;;;;;;;;;23.90;79.60;;;;;;5093464;28;19924;-35
2023/09/16 01:30:16;;;;;;;;;;;23.80;79.50;;;;;;5095987;28;19917;-36
2023/09/16 01:32:43;;;;;;;;;;;23.80;79.50;;;;;;5092458;28;19973;-35
2023/09/16 01:35:10;;;;;;;;;;;23.80;79.40;;;;;;5098878;28;19922;-35
2023/09/16 01:37:36;;;;;;;;;;;23.80;79.40;;;;;;5085830;28;19921;-36
2023/09/16 01:40:11;;;;;;;;;;;23.80;79.50;;;;;;5067112;28;19922;-35
2023/09/16 01:42:37;;;;;;;;;;;23.80;79.40;;;;;;5090903;28;19925;-35
2023/09/16 01:45:03;;;;;;;;;;;23.80;79.40;;;;;;5085511;28;19939;-36
2023/09/16 01:47:29;;;;;;;;;;;23.80;79.50;;;;;;5092932;28;19969;-35
2023/09/16 01:49:55;;;;;;;;;;;23.80;79.50;;;;;;5085444;28;19920;-35
2023/09/16 01:52:22;;;;;;;;;;;23.80;80.30;;;;;;5086324;28;20375;-35
2023/09/16 01:54:48;;;;;;;;;;;23.80;79.60;;;;;;5051701;28;19935;-39
2023/09/16 01:57:14;;;;;;;;;;;23.70;79.50;;;;;;5094204;28;19928;-36
2023/09/16 01:59:40;;;;;;;;;;;23.70;79.60;;;;;;5095170;28;19961;-35
2023/09/16 02:02:05;;;;;;;;;;;23.70;79.50;;;;;;5094232;28;19916;-35
2023/09/16 02:04:31;;;;;;;;;;;23.70;79.60;;;;;;5088727;28;19919;-35
2023/09/16 02:06:57;;;;;;;;;;;23.70;79.40;;;;;;5095702;28;19917;-35
2023/09/16 02:09:23;;;;;;;;;;;23.70;79.40;;;;;;5102542;28;19912;-36
2023/09/16 02:11:49;;;;;;;;;;;23.70;79.40;;;;;;5089677;28;19936;-35
2023/09/16 02:14:15;;;;;;;;;;;23.70;79.40;;;;;;5094046;28;20065;-35
2023/09/16 02:16:41;;;;;;;;;;;23.70;79.40;;;;;;5094239;28;19924;-35
2023/09/16 02:19:07;;;;;;;;;;;23.70;79.30;;;;;;5093372;28;19946;-36
2023/09/16 02:21:33;;;;;;;;;;;23.70;79.40;;;;;;5096204;28;19916;-36
2023/09/16 02:23:59;;;;;;;;;;;23.70;79.40;;;;;;5102229;28;19955;-36
2023/09/16 02:26:24;;;;;;;;;;;23.70;79.40;;;;;;5097878;28;19961;-35
2023/09/16 02:28:50;;;;;;;;;;;23.60;79.30;;;;;;5095184;28;19912;-35
2023/09/16 02:31:16;;;;;;;;;;;23.60;79.30;;;;;;5092780;28;19951;-35
2023/09/16 02:33:42;;;;;;;;;;;23.60;79.30;;;;;;5092172;28;19916;-35
2023/09/16 02:36:08;;;;;;;;;;;23.60;79.30;;;;;;5093677;28;19924;-35
2023/09/16 02:38:34;;;;;;;;;;;23.60;79.30;;;;;;5095224;28;20365;-35
2023/09/16 02:41:06;;;;;;;;;;;23.60;79.30;;;;;;5094212;28;19912;-36
2023/09/16 02:43:31;;;;;;;;;;;23.60;79.30;;;;;;5101501;28;20363;-36
2023/09/16 02:45:57;;;;;;;;;;;23.60;80.00;;;;;;5100022;28;19916;-35
2023/09/16 02:48:26;;;;;;;;;;;23.60;79.30;;;;;;5101133;28;20191;-35
2023/09/16 02:50:52;;;;;;;;;;;23.60;79.20;;;;;;5102001;28;19912;-35
2023/09/16 02:53:18;;;;;;;;;;;23.60;79.30;;;;;;5100807;28;19926;-36
2023/09/16 02:55:43;;;;;;;;;;;23.60;79.30;;;;;;5096489;28;19946;-35
2023/09/16 02:58:09;;;;;;;;;;;23.50;79.20;;;;;;5092240;28;19916;-35
2023/09/16 03:00:35;;;;;;;;;;;23.60;79.30;;;;;;5091069;28;19923;-35
2023/09/16 03:03:01;;;;;;;;;;;23.50;79.20;;;;;;5091387;28;19912;-35
2023/09/16 03:05:29;;;;;;;;;;;23.50;79.20;;;;;;5100693;28;19916;-35
2023/09/16 03:07:55;;;;;;;;;;;23.50;79.20;;;;;;5094746;28;19916;-35
2023/09/16 03:10:21;;;;;;;;;;;23.50;79.20;;;;;;5098348;28;20463;-36
2023/09/16 03:12:46;;;;;;;;;;;23.50;79.20;;;;;;5095495;28;19931;-35
2023/09/16 03:15:12;;;;;;;;;;;23.50;79.20;;;;;;5100223;28;19916;-35
2023/09/16 03:17:38;;;;;;;;;;;23.50;79.20;;;;;;5101500;28;19924;-35
2023/09/16 03:20:04;;;;;;;;;;;23.40;79.20;;;;;;5093233;28;19919;-35
2023/09/16 03:22:31;;;;;;;;;;;23.50;79.20;;;;;;5101810;28;20269;-35
2023/09/16 03:24:57;;;;;;;;;;;23.50;79.30;;;;;;5100991;28;19913;-35
2023/09/16 03:27:22;;;;;;;;;;;23.40;79.20;;;;;;5092958;28;19916;-35
2023/09/16 03:29:48;;;;;;;;;;;23.40;79.20;;;;;;5101256;28;19987;-35
2023/09/16 03:32:14;;;;;;;;;;;23.40;79.20;;;;;;5093970;28;19920;-35
2023/09/16 03:34:40;;;;;;;;;;;23.40;79.20;;;;;;5101342;28;20385;-35
2023/09/16 03:37:06;;;;;;;;;;;23.40;79.30;;;;;;5092687;28;19924;-36
2023/09/16 03:39:32;;;;;;;;;;;23.40;79.20;;;;;;5100721;28;20014;-35
2023/09/16 03:41:58;;;;;;;;;;;23.40;79.20;;;;;;5099730;28;19932;-35
2023/09/16 03:44:24;;;;;;;;;;;23.40;79.30;;;;;;5100689;28;19920;-35
2023/09/16 03:46:50;;;;;;;;;;;23.40;79.20;;;;;;5096187;28;20033;-35
2023/09/16 03:49:16;;;;;;;;;;;23.40;79.20;;;;;;5100293;28;19917;-35
2023/09/16 03:51:42;;;;;;;;;;;23.30;79.20;;;;;;5101271;28;19923;-35
2023/09/16 03:54:08;;;;;;;;;;;23.30;79.20;;;;;;5093152;28;19920;-35
2023/09/16 03:56:34;;;;;;;;;;;23.30;79.20;;;;;;5070662;28;19987;-35
2023/09/16 03:59:00;;;;;;;;;;;23.30;79.20;;;;;;5097927;28;19918;-35
2023/09/16 04:01:26;;;;;;;;;;;23.30;79.20;;;;;;5093849;28;19980;-36
2023/09/16 04:03:54;;;;;;;;;;;23.30;79.20;;;;;;5094051;28;20559;-35
2023/09/16 04:06:20;;;;;;;;;;;23.30;79.20;;;;;;5085649;28;19998;-35
2023/09/16 04:08:46;;;;;;;;;;;23.30;79.20;;;;;;5087074;28;19925;-35
2023/09/16 04:11:12;;;;;;;;;;;23.30;79.20;;;;;;5084059;28;19916;-35
2023/09/16 04:13:38;;;;;;;;;;;23.30;79.30;;;;;;5090991;28;19927;-36
2023/09/16 04:16:04;;;;;;;;;;;23.20;79.90;;;;;;5084336;28;20296;-35
2023/09/16 04:18:31;;;;;;;;;;;23.30;79.30;;;;;;5066308;28;19912;-36
2023/09/16 04:20:56;;;;;;;;;;;23.20;79.20;;;;;;5089864;28;19980;-35
2023/09/16 04:23:23;;;;;;;;;;;23.20;79.20;;;;;;5094779;28;19917;-36
2023/09/16 04:25:58;;;;;;;;;;;23.20;79.20;;;;;;5086314;28;19920;-36
2023/09/16 04:28:27;;;;;;;;;;;23.20;79.20;;;;;;5101600;28;19916;-36
2023/09/16 04:30:53;;;;;;;;;;;23.20;79.20;;;;;;5096117;28;19923;-36
2023/09/16 04:33:19;;;;;;;;;;;23.20;79.20;;;;;;5098411;28;19920;-36
2023/09/16 04:35:45;;;;;;;;;;;23.20;79.30;;;;;;5083353;28;19928;-36
2023/09/16 04:38:12;;;;;;;;;;;23.20;79.30;;;;;;5096253;28;20220;-35
2023/09/16 04:40:38;;;;;;;;;;;23.20;79.30;;;;;;5093682;28;19917;-35
2023/09/16 04:43:05;;;;;;;;;;;23.20;79.40;;;;;;5088355;28;19927;-35
2023/09/16 04:45:31;;;;;;;;;;;23.20;79.30;;;;;;5093891;28;19916;-36
2023/09/16 04:47:57;;;;;;;;;;;23.20;79.30;;;;;;5094320;28;19909;-36
2023/09/16 04:50:23;;;;;;;;;;;23.10;79.20;;;;;;5089514;28;19974;-36
2023/09/16 04:52:50;;;;;;;;;;;23.10;79.20;;;;;;5090162;28;19909;-36
2023/09/16 04:55:16;;;;;;;;;;;23.10;79.30;;;;;;5085667;28;19942;-35
2023/09/16 04:57:42;;;;;;;;;;;23.10;79.30;;;;;;5093762;28;19921;-36
2023/09/16 05:00:08;;;;;;;;;;;23.10;79.30;;;;;;5103418;28;19916;-35
2023/09/16 05:02:34;;;;;;;;;;;23.10;79.30;;;;;;5091705;28;19919;-35
2023/09/16 05:05:01;;;;;;;;;;;23.10;79.30;;;;;;5085411;28;19913;-36
2023/09/16 05:07:27;;;;;;;;;;;23.10;79.30;;;;;;5096977;28;19934;-36
2023/09/16 05:09:53;;;;;;;;;;;23.10;79.30;;;;;;5096475;28;19912;-36
2023/09/16 05:12:19;;;;;;;;;;;23.10;79.40;;;;;;5095649;28;19928;-36
2023/09/16 05:14:46;;;;;;;;;;;23.10;79.40;;;;;;5090958;28;19913;-36
2023/09/16 05:17:12;;;;;;;;;;;23.10;79.40;;;;;;5102802;28;19920;-36
2023/09/16 05:19:38;;;;;;;;;;;23.10;79.40;;;;;;5099240;28;19939;-36
2023/09/16 05:22:04;;;;;;;;;;;23.00;79.40;;;;;;5103375;28;19915;-35
2023/09/16 05:24:31;;;;;;;;;;;23.00;79.40;;;;;;5100328;28;19927;-35
2023/09/16 05:26:56;;;;;;;;;;;23.00;79.40;;;;;;5093564;28;19912;-36
2023/09/16 05:29:22;;;;;;;;;;;23.00;79.40;;;;;;5093159;28;19916;-36
2023/09/16 05:31:49;;;;;;;;;;;23.00;79.40;;;;;;5099959;28;19922;-36
2023/09/16 05:34:15;;;;;;;;;;;23.00;79.40;;;;;;5089963;28;20004;-36
2023/09/16 05:36:41;;;;;;;;;;;23.00;79.40;;;;;;5084759;28;19961;-35
2023/09/16 05:39:07;;;;;;;;;;;23.00;79.50;;;;;;5085266;28;19943;-36
2023/09/16 05:41:35;;;;;;;;;;;23.00;79.40;;;;;;5096533;28;19916;-36
2023/09/16 05:44:01;;;;;;;;;;;23.00;79.40;;;;;;5095379;28;19977;-36
2023/09/16 05:46:27;;;;;;;;;;;23.00;79.40;;;;;;5089572;28;19997;-36
2023/09/16 05:49:06;;;;;;;;;;;23.00;79.50;;;;;;5097836;28;20098;-36
2023/09/16 05:51:32;;;;;;;;;;;23.00;79.50;;;;;;5097109;28;19955;-36
2023/09/16 05:53:58;;;;;;;;;;;22.90;79.40;;;;;;5103381;28;19912;-36
2023/09/16 05:56:24;;;;;;;;;;;22.90;79.50;;;;;;5091915;28;20363;-35
2023/09/16 05:58:50;;;;;;;;;;;22.90;79.50;;;;;;5099175;28;19924;-36
2023/09/16 06:01:16;;;;;;;;;;;22.90;79.50;;;;;;5097904;28;19991;-36
2023/09/16 06:03:42;;;;;;;;;;;22.90;79.50;;;;;;5089758;28;19912;-36
2023/09/16 06:06:08;;;;;;;;;;;22.90;79.50;;;;;;5092441;28;19916;-36
2023/09/16 06:08:33;;;;;;;;;;;22.90;79.50;;;;;;5096538;28;19923;-36
2023/09/16 06:10:59;;;;;;;;;;;22.90;79.50;;;;;;5095062;28;19913;-36
2023/09/16 06:13:25;;;;;;;;;;;22.90;79.50;;;;;;5102373;28;19965;-36
2023/09/16 06:15:51;;;;;;;;;;;22.90;79.50;;;;;;5088687;28;19927;-36
2023/09/16 06:18:17;;;;;;;;;;;22.90;79.50;;;;;;5092053;28;19917;-36
2023/09/16 06:20:43;;;;;;;;;;;22.80;79.50;;;;;;5071608;28;19916;-36
2023/09/16 06:23:09;;;;;;;;;;;22.80;79.50;;;;;;5076213;28;19938;-35
2023/09/16 06:25:35;;;;;;;;;;;22.80;79.50;;;;;;5100892;28;20423;-36
2023/09/16 06:28:01;;;;;;;;;;;22.80;79.50;;;;;;5087157;28;19947;-36
2023/09/16 06:30:26;;;;;;;;;;;22.80;79.60;;;;;;5091743;28;19972;-36
2023/09/16 06:32:53;;;;;;;;;;;22.80;79.50;;;;;;5099838;28;19916;-36
2023/09/16 06:35:19;;;;;;;;;;;22.80;79.50;;;;;;5100761;28;19928;-35
2023/09/16 06:37:45;;;;;;;;;;;22.80;79.60;;;;;;5102036;28;19916;-36
2023/09/16 06:40:11;;;;;;;;;;;22.80;79.60;;;;;;5094073;28;20690;-35
2023/09/16 06:42:37;;;;;;;;;;;22.80;79.60;;;;;;5099266;28;20409;-35
2023/09/16 06:45:02;;;;;;;;;;;22.80;79.60;;;;;;5098646;28;19943;-36
2023/09/16 06:47:28;;;;;;;;;;;22.80;79.60;;;;;;5093910;28;20705;-36
2023/09/16 06:49:55;;;;;;;;;;;22.70;79.60;;;;;;5101546;28;19951;-35
2023/09/16 06:52:26;;;;;;;;;;;22.80;79.70;;;;;;5101167;28;19938;-35
2023/09/16 06:54:52;;;;;;;;;;;22.70;79.60;;;;;;5094833;28;19919;-35
2023/09/16 06:57:18;;;;;;;;;;;22.70;79.60;;;;;;5086180;28;20246;-36
2023/09/16 06:59:47;;;;;;;;;;;22.70;79.60;;;;;;5098072;28;19930;-35
2023/09/16 07:02:13;;;;;;;;;;;22.70;79.60;;;;;;5100081;28;19917;-36
2023/09/16 07:04:40;;;;;;;;;;;22.70;79.70;;;;;;5077422;28;19913;-35
2023/09/16 07:07:06;;;;;;;;;;;22.70;79.70;;;;;;5092155;28;19922;-36
2023/09/16 07:09:32;;;;;;;;;;;22.70;79.70;;;;;;5102278;28;19919;-36
2023/09/16 07:11:58;;;;;;;;;;;22.70;79.70;;;;;;5093930;28;19951;-35
2023/09/16 07:14:24;;;;;;;;;;;22.70;79.70;;;;;;5093418;28;19923;-36
2023/09/16 07:16:50;;;;;;;;;;;22.70;79.70;;;;;;5101335;28;19981;-36
2023/09/16 07:19:16;;;;;;;;;;;22.70;79.80;;;;;;5100605;28;19926;-36
2023/09/16 07:21:42;;;;;;;;;;;22.70;79.80;;;;;;5088799;28;19912;-36
2023/09/16 07:24:08;;;;;;;;;;;22.70;79.80;;;;;;5091554;28;19917;-35
2023/09/16 07:26:33;;;;;;;;;;;22.70;79.80;;;;;;5101222;28;19915;-35
2023/09/16 07:28:59;;;;;;;;;;;22.60;79.80;;;;;;5099751;28;19923;-36
2023/09/16 07:31:25;;;;;;;;;;;22.60;80.50;;;;;;5094469;28;19912;-36
2023/09/16 07:33:51;;;;;;;;;;;22.60;79.80;;;;;;5094968;28;19947;-36
2023/09/16 07:36:17;;;;;;;;;;;22.60;79.70;;;;;;5092172;28;20347;-36
2023/09/16 07:38:43;;;;;;;;;;;22.60;79.80;;;;;;5064833;28;19983;-36
2023/09/16 07:41:09;;;;;;;;;;;22.60;79.80;;;;;;5093110;28;19916;-36
2023/09/16 07:43:35;;;;;;;;;;;22.60;79.80;;;;;;5102346;28;19931;-35
2023/09/16 07:46:01;;;;;;;;;;;22.60;79.80;;;;;;5086772;28;19916;-35
2023/09/16 07:48:26;;;;;;;;;;;22.60;79.90;;;;;;5098951;28;19958;-36
2023/09/16 07:50:54;;;;;;;;;;;22.60;79.90;;;;;;5088928;28;19993;-36
2023/09/16 07:53:20;;;;;;;;;;;22.60;79.90;;;;;;5094243;28;19938;-36
2023/09/16 07:55:46;;;;;;;;;;;22.60;79.90;;;;;;5095397;28;19924;-35
2023/09/16 07:58:12;;;;;;;;;;;22.60;80.00;;;;;;5099043;28;19933;-35
2023/09/16 08:00:38;;;;;;;;;;;22.60;79.90;;;;;;5098596;28;19920;-35
2023/09/16 08:03:04;;;;;;;;;;;22.60;80.00;;;;;;5096306;28;19912;-35
2023/09/16 08:05:30;;;;;;;;;;;22.60;80.00;;;;;;5093668;28;19927;-36
2023/09/16 08:07:56;;;;;;;;;;;22.60;80.00;;;;;;5087462;28;19998;-35
2023/09/16 08:10:21;;;;;;;;;;;22.60;80.00;;;;;;5087677;28;19916;-35
2023/09/16 08:12:47;;;;;;;;;;;22.50;79.90;;;;;;5101200;28;19951;-36
2023/09/16 08:15:13;;;;;;;;;;;22.50;80.00;;;;;;5093159;28;20453;-35
2023/09/16 08:17:39;;;;;;;;;;;22.50;80.00;;;;;;5098981;28;19954;-36
2023/09/16 08:20:05;;;;;;;;;;;22.50;80.00;;;;;;5097297;28;19963;-36
2023/09/16 08:22:31;;;;;;;;;;;22.50;80.00;;;;;;5087642;28;19912;-36
2023/09/16 08:24:57;;;;;;;;;;;22.50;80.00;;;;;;5094573;28;19988;-36
2023/09/16 08:27:23;;;;;;;;;;;22.50;80.00;;;;;;5095105;28;20011;-36
2023/09/16 08:29:49;;;;;;;;;;;22.50;80.00;;;;;;5093712;28;19920;-36
2023/09/16 08:32:15;;;;;;;;;;;22.50;80.10;;;;;;5088591;28;22103;-36
2023/09/16 08:34:41;;;;;;;;;;;22.50;80.00;;;;;;5092978;28;19917;-36
2023/09/16 08:37:07;;;;;;;;;;;22.50;80.10;;;;;;5094101;28;19924;-35
2023/09/16 08:39:33;;;;;;;;;;;22.50;80.10;;;;;;5090132;28;19923;-35
2023/09/16 08:42:05;;;;;;;;;;;22.50;80.10;;;;;;5096038;28;19928;-36
2023/09/16 08:44:33;;;;;;;;;;;22.50;80.10;;;;;;5069338;28;19952;-36
2023/09/16 08:46:59;;;;;;;;;;;22.50;80.10;;;;;;5093738;28;19984;-35
2023/09/16 08:49:25;;;;;;;;;;;22.50;80.10;;;;;;5070788;28;19923;-36
2023/09/16 08:51:51;;;;;;;;;;;22.50;80.10;;;;;;5074790;28;19912;-35
2023/09/16 08:54:18;;;;;;;;;;;22.50;80.10;;;;;;5068690;28;19924;-35
2023/09/16 08:56:43;;;;;;;;;;;22.50;80.10;;;;;;5074874;28;19917;-36
2023/09/16 08:59:09;;;;;;;;;;;22.50;80.10;;;;;;5101810;28;19938;-36
2023/09/16 09:01:35;;;;;;;;;;;22.50;80.30;;;;;;5085304;28;19916;-36
2023/09/16 09:04:03;;;;;;;;;;;22.40;80.10;;;;;;5088852;28;19955;-36
2023/09/16 09:06:29;;;;;;;;;;;22.40;80.10;;;;;;5092879;28;19916;-36
2023/09/16 09:08:54;;;;;;;;;;;22.40;80.10;;;;;;5093416;28;19919;-35
2023/09/16 09:11:20;;;;;;;;;;;22.40;80.20;;;;;;5095479;28;19912;-36
2023/09/16 09:13:46;;;;;;;;;;;22.40;80.20;;;;;;5072681;28;19943;-36
2023/09/16 09:16:14;;;;;;;;;;;22.40;80.20;;;;;;5093920;28;20028;-35
2023/09/16 09:18:40;;;;;;;;;;;22.40;80.20;;;;;;5085499;28;19916;-36
2023/09/16 09:21:06;;;;;;;;;;;22.40;80.30;;;;;;5099975;28;20074;-35
2023/09/16 09:23:32;;;;;;;;;;;22.40;80.30;;;;;;5103686;28;19920;-36
2023/09/16 09:25:58;;;;;;;;;;;22.40;80.30;;;;;;5103061;28;19912;-36
2023/09/16 09:28:24;;;;;;;;;;;22.40;80.30;;;;;;5095746;28;19916;-35
2023/09/16 09:30:50;;;;;;;;;;;22.40;80.30;;;;;;5077789;28;19912;-36
2023/09/16 09:33:19;;;;;;;;;;;22.40;80.30;;;;;;5076455;28;19920;-36
2023/09/16 09:35:45;;;;;;;;;;;22.40;80.30;;;;;;5091771;28;19916;-35
2023/09/16 09:38:11;;;;;;;;;;;22.40;80.30;;;;;;5102009;28;19920;-36
2023/09/16 09:40:37;;;;;;;;;;;22.40;80.30;;;;;;5102352;28;19916;-35
2023/09/16 09:43:03;;;;;;;;;;;22.40;80.30;;;;;;5101509;28;20015;-35
2023/09/16 09:45:32;;;;;;;;;;;22.40;80.30;;;;;;5099641;28;19921;-36
2023/09/16 09:47:58;;;;;;;;;;;22.40;80.30;;;;;;5086582;28;19956;-35
2023/09/16 09:50:24;;;;;;;;;;;22.40;80.30;;;;;;5090089;28;19923;-35
2023/09/16 09:52:53;;;;;;;;;;;22.30;80.30;;;;;;5102695;28;19919;-35
2023/09/16 09:55:19;;;;;;;;;;;22.40;80.40;;;;;;5093952;28;19921;-35
2023/09/16 09:57:46;;;;;;;;;;;22.40;80.40;;;;;;5097277;28;19924;-35
2023/09/16 10:00:16;;;;;;;;;;;22.30;80.40;;;;;;5081554;28;20015;-35
2023/09/16 10:02:42;;;;;;;;;;;22.30;80.30;;;;;;5092678;28;19912;-36
2023/09/16 10:05:12;;;;;;;;;;;22.30;80.40;;;;;;5095593;28;19947;-36
2023/09/16 10:07:39;;;;;;;;;;;22.30;80.40;;;;;;5096981;28;19963;-36
2023/09/16 10:10:05;;;;;;;;;;;22.30;80.40;;;;;;5078975;28;19916;-35
2023/09/16 10:12:31;;;;;;;;;;;22.30;80.40;;;;;;5080396;28;19920;-36
2023/09/16 10:14:57;;;;;;;;;;;22.30;80.40;;;;;;5099281;28;19916;-35
2023/09/16 10:17:23;;;;;;;;;;;22.30;80.40;;;;;;5094989;28;19924;-36
2023/09/16 10:19:49;;;;;;;;;;;22.30;80.40;;;;;;5100658;28;20010;-35
2023/09/16 10:22:14;;;;;;;;;;;22.30;80.40;;;;;;5075040;28;19919;-35
2023/09/16 10:24:41;;;;;;;;;;;22.30;80.40;;;;;;5102381;28;19912;-36
2023/09/16 10:27:26;;;;;;;;;;;22.30;80.50;;;;;;5101441;28;19962;-35
2023/09/16 10:29:52;;;;;;;;;;;22.30;80.50;;;;;;5095608;28;19923;-35
2023/09/16 10:32:18;;;;;;;;;;;22.30;80.50;;;;;;5094398;28;19923;-35
2023/09/16 10:34:45;;;;;;;;;;;22.30;80.50;;;;;;5087954;28;19975;-35
2023/09/16 10:37:12;;;;;;;;;;;22.30;80.50;;;;;;5086715;28;19924;-35
2023/09/16 10:39:37;;;;;;;;;;;22.30;80.50;;;;;;5072335;28;19920;-35
2023/09/16 10:42:04;;;;;;;;;;;22.30;80.50;;;;;;5091383;28;19924;-35
2023/09/16 10:44:30;;;;;;;;;;;22.30;80.50;;;;;;5092914;28;20031;-35
2023/09/16 10:46:56;;;;;;;;;;;22.30;80.50;;;;;;5070001;28;19916;-35
2023/09/16 10:49:22;;;;;;;;;;;22.30;80.60;;;;;;5090243;28;20627;-35
2023/09/16 10:51:48;;;;;;;;;;;22.30;80.60;;;;;;5093535;28;19919;-36
2023/09/16 10:54:34;;;;;;;;;;;22.30;80.60;;;;;;5087828;28;19923;-36
2023/09/16 10:57:00;;;;;;;;;;;22.30;80.60;;;;;;5083629;28;19982;-36
2023/09/16 10:59:26;;;;;;;;;;;22.30;80.60;;;;;;5087465;28;20553;-35
2023/09/16 11:01:55;;;;;;;;;;;22.30;80.60;;;;;;5093801;28;19912;-36
2023/09/16 11:04:21;;;;;;;;;;;22.30;80.70;;;;;;5090782;28;19917;-35
2023/09/16 11:06:53;;;;;;;;;;;22.30;80.70;;;;;;5083178;28;19913;-36
2023/09/16 11:09:23;;;;;;;;;;;22.20;80.60;;;;;;5086701;28;19920;-36
2023/09/16 11:11:49;;;;;;;;;;;22.20;80.60;;;;;;5088598;28;20004;-37
2023/09/16 11:14:15;;;;;;;;;;;22.20;80.60;;;;;;5090750;28;19919;-36
2023/09/16 11:16:51;;;;;;;;;;;22.20;80.60;;;;;;5072237;28;19978;-35
2023/09/16 11:19:20;;;;;;;;;;;22.20;80.70;;;;;;5096715;28;19916;-36
2023/09/16 11:21:46;;;;;;;;;;;22.20;80.70;;;;;;5066110;28;19959;-36
2023/09/16 11:24:12;;;;;;;;;;;22.20;80.70;;;;;;5090900;28;19909;-36
2023/09/16 11:26:38;;;;;;;;;;;22.20;80.70;;;;;;5088901;28;19990;-36
2023/09/16 11:29:17;;;;;;;;;;;22.20;80.70;;;;;;5094238;28;20004;-35
2023/09/16 11:31:43;;;;;;;;;;;22.20;80.70;;;;;;5084135;28;19956;-36
2023/09/16 11:34:12;;;;;;;;;;;22.20;80.70;;;;;;5099085;28;19935;-35
2023/09/16 11:36:41;;;;;;;;;;;22.20;80.70;;;;;;5095347;28;19924;-36
2023/09/16 11:39:07;;;;;;;;;;;22.20;80.70;;;;;;5093542;28;19912;-37
2023/09/16 11:41:33;;;;;;;;;;;22.20;80.80;;;;;;5098996;28;19961;-36
2023/09/16 11:43:58;;;;;;;;;;;22.20;80.80;;;;;;5090625;28;19919;-36
2023/09/16 11:46:25;;;;;;;;;;;22.20;80.80;;;;;;5093371;28;19916;-35
2023/09/16 11:48:52;;;;;;;;;;;22.20;80.80;;;;;;5094558;28;19916;-36
2023/09/16 11:51:17;;;;;;;;;;;22.20;80.80;;;;;;5100290;28;19916;-36
2023/09/16 11:53:44;;;;;;;;;;;22.20;80.90;;;;;;5088621;28;20248;-43
2023/09/16 11:56:10;;;;;;;;;;;22.20;80.80;;;;;;5098229;28;20369;-36
2023/09/16 11:58:36;;;;;;;;;;;22.20;80.80;;;;;;5101294;28;19951;-35
2023/09/16 12:01:01;;;;;;;;;;;22.20;80.80;;;;;;5082286;28;20627;-36
2023/09/16 12:03:27;;;;;;;;;;;22.20;80.80;;;;;;5099891;28;19920;-36
2023/09/16 12:05:54;;;;;;;;;;;22.20;80.80;;;;;;5093811;28;19986;-35
2023/09/16 12:08:20;;;;;;;;;;;22.20;80.90;;;;;;5091642;28;20001;-36
2023/09/16 12:10:47;;;;;;;;;;;22.20;80.90;;;;;;5092303;28;20290;-35
2023/09/16 12:13:24;;;;;;;;;;;22.20;80.80;;;;;;5092500;28;19916;-36
2023/09/16 12:15:53;;;;;;;;;;;22.20;80.90;;;;;;5101275;28;19920;-38
2023/09/16 12:18:19;;;;;;;;;;;22.20;80.90;;;;;;5090970;28;19920;-35
2023/09/16 12:20:45;;;;;;;;;;;22.20;80.90;;;;;;5095487;28;19966;-35
2023/09/16 12:23:11;;;;;;;;;;;22.20;80.90;;;;;;5098835;28;19916;-35
2023/09/16 12:25:41;;;;;;;;;;;22.20;80.90;;;;;;5094674;28;19916;-36
2023/09/16 12:28:08;;;;;;;;;;;22.20;80.90;;;;;;5087963;28;19917;-36
2023/09/16 12:30:40;;;;;;;;;;;22.20;80.90;;;;;;5098190;28;19916;-36
2023/09/16 12:33:06;;;;;;;;;;;22.20;80.90;;;;;;5093918;28;19916;-36
2023/09/16 12:35:36;;;;;;;;;;;22.20;80.90;;;;;;5095050;28;20478;-35
2023/09/16 12:38:02;;;;;;;;;;;22.20;80.90;;;;;;5097326;28;19919;-35
2023/09/16 12:40:28;;;;;;;;;;;22.20;80.90;;;;;;5100433;28;19922;-36
2023/09/16 12:42:54;;;;;;;;;;;22.20;80.90;;;;;;5091689;28;20578;-36
2023/09/16 12:45:20;;;;;;;;;;;22.20;80.90;;;;;;5094878;28;19916;-35
2023/09/16 12:47:45;;;;;;;;;;;22.20;81.00;;;;;;5099991;28;20333;-36
2023/09/16 12:50:11;;;;;;;;;;;22.10;80.90;;;;;;5097467;28;19912;-35
2023/09/16 12:52:37;;;;;;;;;;;22.20;81.00;;;;;;5104256;28;19927;-35
2023/09/16 12:55:09;;;;;;;;;;;22.10;81.00;;;;;;5103063;28;19923;-36
2023/09/16 12:57:35;;;;;;;;;;;22.10;81.00;;;;;;5093656;28;19925;-35
2023/09/16 13:00:06;;;;;;;;;;;22.10;81.00;;;;;;5100587;28;19969;-35
2023/09/16 13:02:37;;;;;;;;;;;22.10;81.00;;;;;;5095647;28;19916;-35
2023/09/16 13:05:28;;;;;;;;;;;22.10;81.10;;;;;;5096580;28;19916;-35
2023/09/16 13:07:55;;;;;;;;;;;22.10;81.00;;;;;;5096252;28;19947;-35
2023/09/16 13:10:21;;;;;;;;;;;22.10;81.00;;;;;;5075334;28;19920;-36
2023/09/16 13:12:48;;;;;;;;;;;22.10;81.00;;;;;;5074540;28;19935;-34
2023/09/16 13:15:14;;;;;;;;;;;22.10;81.00;;;;;;5076026;28;19944;-34
2023/09/16 13:17:43;;;;;;;;;;;22.10;81.10;;;;;;5103826;28;19920;-35
2023/09/16 13:20:13;;;;;;;;;;;22.10;81.00;;;;;;5095163;28;19921;-35
2023/09/16 13:22:39;;;;;;;;;;;22.10;81.10;;;;;;5078097;28;19998;-35
2023/09/16 13:25:26;;;;;;;;;;;22.10;81.10;;;;;;5094985;28;19916;-35
2023/09/16 13:27:52;;;;;;;;;;;22.10;81.10;;;;;;5103411;28;19916;-36
2023/09/16 13:30:21;;;;;;;;;;;22.10;81.10;;;;;;5101780;28;19924;-36
2023/09/16 13:32:52;;;;;;;;;;;22.10;81.10;;;;;;5102125;28;19961;-35
2023/09/16 13:35:18;;;;;;;;;;;22.10;81.10;;;;;;5076947;28;19998;-35
2023/09/16 13:37:44;;;;;;;;;;;22.10;81.10;;;;;;5096096;28;19959;-34
2023/09/16 13:40:10;;;;;;;;;;;22.10;81.20;;;;;;5094552;28;19912;-35
2023/09/16 13:42:36;;;;;;;;;;;22.10;81.10;;;;;;5095376;28;19925;-36
2023/09/16 13:45:02;;;;;;;;;;;22.10;81.20;;;;;;5084542;28;19923;-35
2023/09/16 13:47:28;;;;;;;;;;;22.10;81.20;;;;;;5092750;28;19913;-35
2023/09/16 13:49:54;;;;;;;;;;;22.10;81.20;;;;;;5085406;28;19939;-36
2023/09/16 13:52:20;;;;;;;;;;;22.10;81.20;;;;;;5087400;28;19916;-34
2023/09/16 13:54:46;;;;;;;;;;;22.10;81.20;;;;;;5089625;28;19916;-35
2023/09/16 13:57:14;;;;;;;;;;;22.10;81.20;;;;;;5085863;28;20377;-35
2023/09/16 13:59:40;;;;;;;;;;;22.10;81.20;;;;;;5095150;28;19981;-36
2023/09/16 14:02:06;;;;;;;;;;;22.10;81.20;;;;;;5093635;28;19916;-35
2023/09/16 14:04:32;;;;;;;;;;;22.10;81.20;;;;;;5091972;28;19954;-35
2023/09/16 14:06:58;;;;;;;;;;;22.10;81.20;;;;;;5091429;28;19938;-34
2023/09/16 14:09:24;;;;;;;;;;;22.10;81.30;;;;;;5087468;28;19938;-35
2023/09/16 14:11:50;;;;;;;;;;;22.10;81.30;;;;;;5102391;28;19916;-35
2023/09/16 14:14:16;;;;;;;;;;;22.10;81.30;;;;;;5087761;28;19920;-35